sensor_id;sensor_type;location;lat;lon;timestamp;P1;durP1;ratioP1;P2;durP2;ratioP2
51286;SDS011;37364;46.974;18.916;2023-07-22T00:01:56;13.68;;;8.68;;
51286;SDS011;37364;46.974;18.916;2023-07-22T00:04:26;10.35;;;8.55;;
51286;SDS011;37364;46.974;18.916;2023-07-22T00:06:56;13.88;;;10.00;;
51286;SDS011;37364;46.974;18.916;2023-07-22T00:09:27;14.68;;;9.95;;
51286;SDS011;37364;46.974;18.916;2023-07-22T00:11:57;12.18;;;9.07;;
51286;SDS011;37364;46.974;18.916;2023-07-22T00:14:27;18.38;;;10.48;;
51286;SDS011;37364;46.974;18.916;2023-07-22T00:17:00;13.45;;;9.00;;
51286;SDS011;37364;46.974;18.916;2023-07-22T00:19:30;12.73;;;8.38;;
51286;SDS011;37364;46.974;18.916;2023-07-22T00:22:00;13.05;;;9.75;;
51286;SDS011;37364;46.974;18.916;2023-07-22T00:24:30;14.15;;;10.35;;
51286;SDS011;37364;46.974;18.916;2023-07-22T00:27:01;12.60;;;9.50;;
51286;SDS011;37364;46.974;18.916;2023-07-22T00:29:34;15.25;;;11.10;;
51286;SDS011;37364;46.974;18.916;2023-07-22T00:32:07;22.67;;;9.95;;
51286;SDS011;37364;46.974;18.916;2023-07-22T00:34:38;18.55;;;10.90;;
51286;SDS011;37364;46.974;18.916;2023-07-22T00:37:09;14.88;;;10.80;;
51286;SDS011;37364;46.974;18.916;2023-07-22T00:39:40;11.60;;;10.50;;
51286;SDS011;37364;46.974;18.916;2023-07-22T00:42:10;13.07;;;8.98;;
51286;SDS011;37364;46.974;18.916;2023-07-22T00:44:40;17.42;;;10.48;;
51286;SDS011;37364;46.974;18.916;2023-07-22T00:47:13;15.15;;;11.18;;
51286;SDS011;37364;46.974;18.916;2023-07-22T00:52:14;18.42;;;11.10;;
51286;SDS011;37364;46.974;18.916;2023-07-22T00:54:44;15.52;;;10.18;;
51286;SDS011;37364;46.974;18.916;2023-07-22T00:57:17;13.73;;;10.20;;
51286;SDS011;37364;46.974;18.916;2023-07-22T00:59:48;14.02;;;10.60;;
51286;SDS011;37364;46.974;18.916;2023-07-22T01:02:21;16.48;;;10.52;;
51286;SDS011;37364;46.974;18.916;2023-07-22T01:04:52;18.83;;;11.15;;
51286;SDS011;37364;46.974;18.916;2023-07-22T01:07:23;24.92;;;11.75;;
51286;SDS011;37364;46.974;18.916;2023-07-22T01:09:55;18.00;;;11.55;;
51286;SDS011;37364;46.974;18.916;2023-07-22T01:12:27;17.48;;;9.43;;
51286;SDS011;37364;46.974;18.916;2023-07-22T01:14:57;27.38;;;11.70;;
51286;SDS011;37364;46.974;18.916;2023-07-22T01:17:33;19.58;;;12.48;;
51286;SDS011;37364;46.974;18.916;2023-07-22T01:20:05;17.40;;;11.95;;
51286;SDS011;37364;46.974;18.916;2023-07-22T01:22:36;18.42;;;11.13;;
51286;SDS011;37364;46.974;18.916;2023-07-22T01:25:11;20.90;;;12.68;;
51286;SDS011;37364;46.974;18.916;2023-07-22T01:27:41;25.73;;;10.45;;
51286;SDS011;37364;46.974;18.916;2023-07-22T01:30:13;21.42;;;10.48;;
51286;SDS011;37364;46.974;18.916;2023-07-22T01:32:43;28.55;;;12.52;;
51286;SDS011;37364;46.974;18.916;2023-07-22T01:35:13;17.05;;;12.32;;
51286;SDS011;37364;46.974;18.916;2023-07-22T01:37:44;19.98;;;13.18;;
51286;SDS011;37364;46.974;18.916;2023-07-22T01:40:16;12.68;;;10.60;;
51286;SDS011;37364;46.974;18.916;2023-07-22T01:45:17;22.02;;;12.52;;
51286;SDS011;37364;46.974;18.916;2023-07-22T01:47:48;23.20;;;12.43;;
51286;SDS011;37364;46.974;18.916;2023-07-22T01:50:18;19.05;;;12.05;;
51286;SDS011;37364;46.974;18.916;2023-07-22T01:52:48;15.02;;;11.82;;
51286;SDS011;37364;46.974;18.916;2023-07-22T01:55:21;29.48;;;12.10;;
51286;SDS011;37364;46.974;18.916;2023-07-22T01:57:51;19.00;;;13.07;;
51286;SDS011;37364;46.974;18.916;2023-07-22T02:00:21;19.05;;;13.80;;
51286;SDS011;37364;46.974;18.916;2023-07-22T02:02:53;16.25;;;11.15;;
51286;SDS011;37364;46.974;18.916;2023-07-22T02:05:24;20.02;;;11.18;;
51286;SDS011;37364;46.974;18.916;2023-07-22T02:07:55;20.67;;;12.52;;
51286;SDS011;37364;46.974;18.916;2023-07-22T02:10:28;14.52;;;11.75;;
51286;SDS011;37364;46.974;18.916;2023-07-22T02:12:58;15.02;;;12.40;;
51286;SDS011;37364;46.974;18.916;2023-07-22T02:15:29;21.95;;;13.13;;
51286;SDS011;37364;46.974;18.916;2023-07-22T02:18:01;14.05;;;11.35;;
51286;SDS011;37364;46.974;18.916;2023-07-22T02:20:32;13.10;;;11.52;;
51286;SDS011;37364;46.974;18.916;2023-07-22T02:23:02;16.58;;;11.55;;
51286;SDS011;37364;46.974;18.916;2023-07-22T02:28:08;20.02;;;11.85;;
51286;SDS011;37364;46.974;18.916;2023-07-22T02:30:38;20.88;;;11.18;;
51286;SDS011;37364;46.974;18.916;2023-07-22T02:33:08;20.77;;;11.63;;
51286;SDS011;37364;46.974;18.916;2023-07-22T02:35:40;20.38;;;10.98;;
51286;SDS011;37364;46.974;18.916;2023-07-22T02:38:12;22.42;;;12.13;;
51286;SDS011;37364;46.974;18.916;2023-07-22T02:40:46;24.90;;;12.02;;
51286;SDS011;37364;46.974;18.916;2023-07-22T02:43:16;30.20;;;12.52;;
51286;SDS011;37364;46.974;18.916;2023-07-22T02:45:46;14.35;;;11.25;;
51286;SDS011;37364;46.974;18.916;2023-07-22T02:48:17;17.60;;;11.07;;
51286;SDS011;37364;46.974;18.916;2023-07-22T02:50:47;17.13;;;11.45;;
51286;SDS011;37364;46.974;18.916;2023-07-22T02:53:18;16.10;;;11.73;;
51286;SDS011;37364;46.974;18.916;2023-07-22T02:55:51;16.08;;;11.38;;
51286;SDS011;37364;46.974;18.916;2023-07-22T02:58:21;29.83;;;12.18;;
51286;SDS011;37364;46.974;18.916;2023-07-22T03:00:52;16.80;;;12.00;;
51286;SDS011;37364;46.974;18.916;2023-07-22T03:03:24;22.70;;;12.40;;
51286;SDS011;37364;46.974;18.916;2023-07-22T03:05:55;18.05;;;12.63;;
51286;SDS011;37364;46.974;18.916;2023-07-22T03:08:25;22.80;;;12.65;;
51286;SDS011;37364;46.974;18.916;2023-07-22T03:10:58;20.20;;;12.98;;
51286;SDS011;37364;46.974;18.916;2023-07-22T03:13:28;23.25;;;13.52;;
51286;SDS011;37364;46.974;18.916;2023-07-22T03:18:33;15.40;;;12.73;;
51286;SDS011;37364;46.974;18.916;2023-07-22T03:21:03;20.45;;;13.93;;
51286;SDS011;37364;46.974;18.916;2023-07-22T03:23:33;16.90;;;12.75;;
51286;SDS011;37364;46.974;18.916;2023-07-22T03:26:06;14.80;;;12.68;;
51286;SDS011;37364;46.974;18.916;2023-07-22T03:28:36;15.88;;;13.73;;
51286;SDS011;37364;46.974;18.916;2023-07-22T03:31:08;22.48;;;13.50;;
51286;SDS011;37364;46.974;18.916;2023-07-22T03:33:38;18.27;;;13.52;;
51286;SDS011;37364;46.974;18.916;2023-07-22T03:36:12;17.77;;;12.88;;
51286;SDS011;37364;46.974;18.916;2023-07-22T03:38:42;25.50;;;12.68;;
51286;SDS011;37364;46.974;18.916;2023-07-22T03:41:15;20.23;;;12.45;;
51286;SDS011;37364;46.974;18.916;2023-07-22T03:43:46;22.55;;;12.38;;
51286;SDS011;37364;46.974;18.916;2023-07-22T03:46:16;24.50;;;13.00;;
51286;SDS011;37364;46.974;18.916;2023-07-22T03:48:46;23.60;;;12.27;;
51286;SDS011;37364;46.974;18.916;2023-07-22T03:51:17;14.55;;;11.85;;
51286;SDS011;37364;46.974;18.916;2023-07-22T03:53:47;19.67;;;11.65;;
51286;SDS011;37364;46.974;18.916;2023-07-22T03:56:20;17.23;;;11.20;;
51286;SDS011;37364;46.974;18.916;2023-07-22T03:58:51;23.58;;;12.73;;
51286;SDS011;37364;46.974;18.916;2023-07-22T04:01:22;19.65;;;12.05;;
51286;SDS011;37364;46.974;18.916;2023-07-22T04:03:52;18.33;;;11.82;;
51286;SDS011;37364;46.974;18.916;2023-07-22T04:06:22;16.52;;;11.23;;
51286;SDS011;37364;46.974;18.916;2023-07-22T04:08:53;20.27;;;11.77;;
51286;SDS011;37364;46.974;18.916;2023-07-22T04:11:26;14.95;;;11.70;;
51286;SDS011;37364;46.974;18.916;2023-07-22T04:13:56;17.13;;;11.80;;
51286;SDS011;37364;46.974;18.916;2023-07-22T04:16:26;16.50;;;9.90;;
51286;SDS011;37364;46.974;18.916;2023-07-22T04:18:57;15.23;;;11.95;;
51286;SDS011;37364;46.974;18.916;2023-07-22T04:21:28;16.35;;;9.68;;
51286;SDS011;37364;46.974;18.916;2023-07-22T04:23:58;26.90;;;10.45;;
51286;SDS011;37364;46.974;18.916;2023-07-22T04:26:32;15.35;;;11.70;;
51286;SDS011;37364;46.974;18.916;2023-07-22T04:29:02;23.05;;;12.60;;
51286;SDS011;37364;46.974;18.916;2023-07-22T04:31:35;13.88;;;11.48;;
51286;SDS011;37364;46.974;18.916;2023-07-22T04:34:06;15.23;;;11.40;;
51286;SDS011;37364;46.974;18.916;2023-07-22T04:36:38;15.55;;;11.88;;
51286;SDS011;37364;46.974;18.916;2023-07-22T04:39:08;22.38;;;11.55;;
51286;SDS011;37364;46.974;18.916;2023-07-22T04:41:41;12.73;;;10.80;;
51286;SDS011;37364;46.974;18.916;2023-07-22T04:44:11;12.32;;;9.80;;
51286;SDS011;37364;46.974;18.916;2023-07-22T04:46:41;12.40;;;10.77;;
51286;SDS011;37364;46.974;18.916;2023-07-22T04:49:12;19.75;;;10.20;;
51286;SDS011;37364;46.974;18.916;2023-07-22T04:51:45;17.15;;;10.82;;
51286;SDS011;37364;46.974;18.916;2023-07-22T04:54:17;27.95;;;10.15;;
51286;SDS011;37364;46.974;18.916;2023-07-22T04:56:50;13.05;;;8.55;;
51286;SDS011;37364;46.974;18.916;2023-07-22T04:59:20;20.67;;;9.05;;
51286;SDS011;37364;46.974;18.916;2023-07-22T05:01:50;11.90;;;8.35;;
51286;SDS011;37364;46.974;18.916;2023-07-22T05:04:21;11.60;;;7.68;;
51286;SDS011;37364;46.974;18.916;2023-07-22T05:06:51;15.98;;;8.50;;
51286;SDS011;37364;46.974;18.916;2023-07-22T05:09:22;16.33;;;8.48;;
51286;SDS011;37364;46.974;18.916;2023-07-22T05:11:54;10.57;;;8.02;;
51286;SDS011;37364;46.974;18.916;2023-07-22T05:14:25;11.95;;;7.78;;
51286;SDS011;37364;46.974;18.916;2023-07-22T05:16:55;12.70;;;7.95;;
51286;SDS011;37364;46.974;18.916;2023-07-22T05:19:25;11.30;;;6.75;;
51286;SDS011;37364;46.974;18.916;2023-07-22T05:21:55;9.15;;;6.88;;
51286;SDS011;37364;46.974;18.916;2023-07-22T05:24:25;10.65;;;6.80;;
51286;SDS011;37364;46.974;18.916;2023-07-22T05:26:58;12.80;;;6.22;;
51286;SDS011;37364;46.974;18.916;2023-07-22T05:29:35;10.63;;;6.03;;
51286;SDS011;37364;46.974;18.916;2023-07-22T05:32:06;10.73;;;5.78;;
51286;SDS011;37364;46.974;18.916;2023-07-22T05:34:57;11.20;;;6.20;;
51286;SDS011;37364;46.974;18.916;2023-07-22T05:37:28;7.75;;;5.95;;
51286;SDS011;37364;46.974;18.916;2023-07-22T05:39:58;9.65;;;5.95;;
51286;SDS011;37364;46.974;18.916;2023-07-22T05:42:32;10.35;;;6.20;;
51286;SDS011;37364;46.974;18.916;2023-07-22T05:45:02;7.50;;;5.70;;
51286;SDS011;37364;46.974;18.916;2023-07-22T05:47:34;14.52;;;5.90;;
51286;SDS011;37364;46.974;18.916;2023-07-22T05:50:05;13.82;;;6.85;;
51286;SDS011;37364;46.974;18.916;2023-07-22T05:52:36;12.50;;;6.00;;
51286;SDS011;37364;46.974;18.916;2023-07-22T05:55:06;9.07;;;5.13;;
51286;SDS011;37364;46.974;18.916;2023-07-22T05:57:42;7.95;;;4.93;;
51286;SDS011;37364;46.974;18.916;2023-07-22T06:00:12;8.07;;;5.25;;
51286;SDS011;37364;46.974;18.916;2023-07-22T06:02:44;11.10;;;4.60;;
51286;SDS011;37364;46.974;18.916;2023-07-22T06:05:15;9.05;;;4.70;;
51286;SDS011;37364;46.974;18.916;2023-07-22T06:07:45;12.18;;;5.82;;
51286;SDS011;37364;46.974;18.916;2023-07-22T06:10:16;15.35;;;5.85;;
51286;SDS011;37364;46.974;18.916;2023-07-22T06:12:49;11.20;;;4.93;;
51286;SDS011;37364;46.974;18.916;2023-07-22T06:15:19;16.70;;;5.72;;
51286;SDS011;37364;46.974;18.916;2023-07-22T06:17:50;7.18;;;5.18;;
51286;SDS011;37364;46.974;18.916;2023-07-22T06:20:20;10.85;;;5.35;;
51286;SDS011;37364;46.974;18.916;2023-07-22T06:22:51;16.77;;;6.22;;
51286;SDS011;37364;46.974;18.916;2023-07-22T06:25:21;10.27;;;5.68;;
51286;SDS011;37364;46.974;18.916;2023-07-22T06:27:54;8.75;;;5.45;;
51286;SDS011;37364;46.974;18.916;2023-07-22T06:30:24;14.80;;;6.38;;
51286;SDS011;37364;46.974;18.916;2023-07-22T06:32:55;16.70;;;5.78;;
51286;SDS011;37364;46.974;18.916;2023-07-22T06:35:25;7.68;;;5.72;;
51286;SDS011;37364;46.974;18.916;2023-07-22T06:37:56;12.07;;;6.45;;
51286;SDS011;37364;46.974;18.916;2023-07-22T06:40:26;8.40;;;5.95;;
51286;SDS011;37364;46.974;18.916;2023-07-22T06:42:59;11.77;;;6.65;;
51286;SDS011;37364;46.974;18.916;2023-07-22T06:45:29;7.75;;;6.07;;
51286;SDS011;37364;46.974;18.916;2023-07-22T06:48:00;12.70;;;6.75;;
51286;SDS011;37364;46.974;18.916;2023-07-22T06:50:31;6.20;;;4.80;;
51286;SDS011;37364;46.974;18.916;2023-07-22T06:53:01;10.93;;;4.82;;
51286;SDS011;37364;46.974;18.916;2023-07-22T06:55:31;10.80;;;5.18;;
51286;SDS011;37364;46.974;18.916;2023-07-22T06:58:04;7.82;;;5.43;;
51286;SDS011;37364;46.974;18.916;2023-07-22T07:00:34;6.07;;;5.43;;
51286;SDS011;37364;46.974;18.916;2023-07-22T07:03:05;8.20;;;4.97;;
51286;SDS011;37364;46.974;18.916;2023-07-22T07:05:35;13.50;;;5.32;;
51286;SDS011;37364;46.974;18.916;2023-07-22T07:08:08;6.50;;;5.53;;
51286;SDS011;37364;46.974;18.916;2023-07-22T07:10:39;6.28;;;4.60;;
51286;SDS011;37364;46.974;18.916;2023-07-22T07:13:12;6.72;;;5.15;;
51286;SDS011;37364;46.974;18.916;2023-07-22T07:15:45;12.15;;;5.13;;
51286;SDS011;37364;46.974;18.916;2023-07-22T07:18:17;5.05;;;4.47;;
51286;SDS011;37364;46.974;18.916;2023-07-22T07:20:47;13.25;;;4.88;;
51286;SDS011;37364;46.974;18.916;2023-07-22T07:23:17;5.85;;;4.75;;
51286;SDS011;37364;46.974;18.916;2023-07-22T07:25:48;8.20;;;4.35;;
51286;SDS011;37364;46.974;18.916;2023-07-22T07:28:24;11.60;;;4.80;;
51286;SDS011;37364;46.974;18.916;2023-07-22T07:30:54;7.13;;;4.78;;
51286;SDS011;37364;46.974;18.916;2023-07-22T07:33:24;5.68;;;4.78;;
51286;SDS011;37364;46.974;18.916;2023-07-22T07:35:55;6.60;;;4.22;;
51286;SDS011;37364;46.974;18.916;2023-07-22T07:38:25;6.45;;;4.53;;
51286;SDS011;37364;46.974;18.916;2023-07-22T07:40:56;7.30;;;4.00;;
51286;SDS011;37364;46.974;18.916;2023-07-22T07:43:30;10.35;;;4.40;;
51286;SDS011;37364;46.974;18.916;2023-07-22T07:46:13;12.38;;;3.60;;
51286;SDS011;37364;46.974;18.916;2023-07-22T07:48:47;11.20;;;4.25;;
51286;SDS011;37364;46.974;18.916;2023-07-22T07:51:19;6.03;;;4.13;;
51286;SDS011;37364;46.974;18.916;2023-07-22T07:53:50;13.70;;;4.35;;
51286;SDS011;37364;46.974;18.916;2023-07-22T07:56:21;10.15;;;3.92;;
51286;SDS011;37364;46.974;18.916;2023-07-22T07:58:54;7.20;;;3.95;;
51286;SDS011;37364;46.974;18.916;2023-07-22T08:01:25;9.95;;;4.53;;
51286;SDS011;37364;46.974;18.916;2023-07-22T08:03:55;7.60;;;3.67;;
51286;SDS011;37364;46.974;18.916;2023-07-22T08:06:25;6.97;;;4.03;;
51286;SDS011;37364;46.974;18.916;2023-07-22T08:08:55;6.15;;;3.55;;
51286;SDS011;37364;46.974;18.916;2023-07-22T08:11:26;9.68;;;3.90;;
51286;SDS011;37364;46.974;18.916;2023-07-22T08:13:58;10.60;;;4.00;;
51286;SDS011;37364;46.974;18.916;2023-07-22T08:16:29;10.63;;;3.83;;
51286;SDS011;37364;46.974;18.916;2023-07-22T08:19:03;6.78;;;3.95;;
51286;SDS011;37364;46.974;18.916;2023-07-22T08:21:33;10.45;;;4.00;;
51286;SDS011;37364;46.974;18.916;2023-07-22T08:24:05;3.55;;;3.22;;
51286;SDS011;37364;46.974;18.916;2023-07-22T08:26:35;7.57;;;3.60;;
51286;SDS011;37364;46.974;18.916;2023-07-22T08:29:08;12.13;;;3.78;;
51286;SDS011;37364;46.974;18.916;2023-07-22T08:31:38;4.53;;;3.42;;
51286;SDS011;37364;46.974;18.916;2023-07-22T08:34:08;10.45;;;3.63;;
51286;SDS011;37364;46.974;18.916;2023-07-22T08:36:39;6.30;;;3.47;;
51286;SDS011;37364;46.974;18.916;2023-07-22T08:39:09;7.80;;;3.40;;
51286;SDS011;37364;46.974;18.916;2023-07-22T08:41:39;8.23;;;3.70;;
51286;SDS011;37364;46.974;18.916;2023-07-22T08:44:17;4.45;;;3.00;;
51286;SDS011;37364;46.974;18.916;2023-07-22T08:46:50;6.50;;;3.45;;
51286;SDS011;37364;46.974;18.916;2023-07-22T08:49:25;4.40;;;3.15;;
51286;SDS011;37364;46.974;18.916;2023-07-22T08:51:57;3.58;;;3.13;;
51286;SDS011;37364;46.974;18.916;2023-07-22T08:54:30;6.40;;;2.80;;
51286;SDS011;37364;46.974;18.916;2023-07-22T08:57:00;8.70;;;2.80;;
51286;SDS011;37364;46.974;18.916;2023-07-22T08:59:33;24.00;;;3.83;;
51286;SDS011;37364;46.974;18.916;2023-07-22T09:02:05;7.60;;;3.17;;
51286;SDS011;37364;46.974;18.916;2023-07-22T09:04:39;3.45;;;2.95;;
51286;SDS011;37364;46.974;18.916;2023-07-22T09:07:10;3.90;;;2.80;;
51286;SDS011;37364;46.974;18.916;2023-07-22T09:09:41;5.25;;;2.85;;
51286;SDS011;37364;46.974;18.916;2023-07-22T09:12:14;9.85;;;3.33;;
51286;SDS011;37364;46.974;18.916;2023-07-22T09:14:47;6.80;;;3.00;;
51286;SDS011;37364;46.974;18.916;2023-07-22T09:17:19;4.85;;;3.25;;
51286;SDS011;37364;46.974;18.916;2023-07-22T09:19:51;4.95;;;3.10;;
51286;SDS011;37364;46.974;18.916;2023-07-22T09:22:24;5.00;;;3.00;;
51286;SDS011;37364;46.974;18.916;2023-07-22T09:25:03;5.70;;;2.67;;
51286;SDS011;37364;46.974;18.916;2023-07-22T09:27:43;10.70;;;3.17;;
51286;SDS011;37364;46.974;18.916;2023-07-22T09:30:26;5.18;;;2.60;;
51286;SDS011;37364;46.974;18.916;2023-07-22T09:32:58;5.78;;;2.90;;
51286;SDS011;37364;46.974;18.916;2023-07-22T09:35:29;7.75;;;2.63;;
51286;SDS011;37364;46.974;18.916;2023-07-22T09:38:01;10.13;;;2.90;;
51286;SDS011;37364;46.974;18.916;2023-07-22T09:40:31;5.85;;;3.30;;
51286;SDS011;37364;46.974;18.916;2023-07-22T09:43:02;8.30;;;2.92;;
51286;SDS011;37364;46.974;18.916;2023-07-22T09:45:36;7.32;;;4.03;;
51286;SDS011;37364;46.974;18.916;2023-07-22T09:48:07;10.45;;;8.30;;
51286;SDS011;37364;46.974;18.916;2023-07-22T09:50:39;3.73;;;3.23;;
51286;SDS011;37364;46.974;18.916;2023-07-22T09:53:09;2.88;;;2.53;;
51286;SDS011;37364;46.974;18.916;2023-07-22T09:55:45;6.40;;;2.60;;
51286;SDS011;37364;46.974;18.916;2023-07-22T09:58:15;3.20;;;2.80;;
51286;SDS011;37364;46.974;18.916;2023-07-22T10:00:48;6.00;;;2.83;;
51286;SDS011;37364;46.974;18.916;2023-07-22T10:03:20;9.10;;;3.35;;
51286;SDS011;37364;46.974;18.916;2023-07-22T10:05:53;6.10;;;3.78;;
51286;SDS011;37364;46.974;18.916;2023-07-22T10:08:23;7.43;;;5.05;;
51286;SDS011;37364;46.974;18.916;2023-07-22T10:10:54;5.40;;;3.13;;
51286;SDS011;37364;46.974;18.916;2023-07-22T10:15:59;7.97;;;3.55;;
51286;SDS011;37364;46.974;18.916;2023-07-22T10:18:30;6.68;;;5.68;;
51286;SDS011;37364;46.974;18.916;2023-07-22T10:21:04;4.47;;;3.08;;
51286;SDS011;37364;46.974;18.916;2023-07-22T10:23:34;10.18;;;3.90;;
51286;SDS011;37364;46.974;18.916;2023-07-22T10:26:06;6.82;;;4.63;;
51286;SDS011;37364;46.974;18.916;2023-07-22T10:28:38;8.73;;;3.72;;
51286;SDS011;37364;46.974;18.916;2023-07-22T10:31:11;3.67;;;2.95;;
51286;SDS011;37364;46.974;18.916;2023-07-22T10:33:45;7.60;;;3.38;;
51286;SDS011;37364;46.974;18.916;2023-07-22T10:36:16;6.22;;;3.53;;
51286;SDS011;37364;46.974;18.916;2023-07-22T10:38:55;6.32;;;2.92;;
51286;SDS011;37364;46.974;18.916;2023-07-22T10:41:29;3.92;;;3.20;;
51286;SDS011;37364;46.974;18.916;2023-07-22T10:44:00;5.78;;;3.70;;
51286;SDS011;37364;46.974;18.916;2023-07-22T10:46:34;8.10;;;2.95;;
51286;SDS011;37364;46.974;18.916;2023-07-22T10:49:08;8.70;;;2.97;;
51286;SDS011;37364;46.974;18.916;2023-07-22T10:51:40;15.73;;;3.30;;
51286;SDS011;37364;46.974;18.916;2023-07-22T10:54:11;13.85;;;4.93;;
51286;SDS011;37364;46.974;18.916;2023-07-22T10:56:42;5.30;;;3.30;;
51286;SDS011;37364;46.974;18.916;2023-07-22T10:59:13;9.95;;;2.78;;
51286;SDS011;37364;46.974;18.916;2023-07-22T11:01:46;4.60;;;2.88;;
51286;SDS011;37364;46.974;18.916;2023-07-22T11:04:21;6.53;;;3.33;;
51286;SDS011;37364;46.974;18.916;2023-07-22T11:07:28;8.10;;;3.45;;
51286;SDS011;37364;46.974;18.916;2023-07-22T11:10:16;6.10;;;3.30;;
51286;SDS011;37364;46.974;18.916;2023-07-22T11:12:47;6.82;;;3.25;;
51286;SDS011;37364;46.974;18.916;2023-07-22T11:15:18;6.88;;;3.00;;
51286;SDS011;37364;46.974;18.916;2023-07-22T11:17:52;13.63;;;3.42;;
51286;SDS011;37364;46.974;18.916;2023-07-22T11:20:24;12.95;;;3.42;;
51286;SDS011;37364;46.974;18.916;2023-07-22T11:22:54;6.65;;;2.90;;
51286;SDS011;37364;46.974;18.916;2023-07-22T11:25:25;9.20;;;2.70;;
51286;SDS011;37364;46.974;18.916;2023-07-22T11:27:56;8.57;;;3.05;;
51286;SDS011;37364;46.974;18.916;2023-07-22T11:30:27;7.10;;;3.33;;
51286;SDS011;37364;46.974;18.916;2023-07-22T11:33:00;7.10;;;3.10;;
51286;SDS011;37364;46.974;18.916;2023-07-22T11:35:31;4.53;;;2.92;;
51286;SDS011;37364;46.974;18.916;2023-07-22T11:38:01;6.22;;;5.28;;
51286;SDS011;37364;46.974;18.916;2023-07-22T11:40:33;6.13;;;3.53;;
51286;SDS011;37364;46.974;18.916;2023-07-22T11:43:03;3.78;;;2.90;;
51286;SDS011;37364;46.974;18.916;2023-07-22T11:45:34;4.50;;;3.25;;
51286;SDS011;37364;46.974;18.916;2023-07-22T11:48:11;8.25;;;3.15;;
51286;SDS011;37364;46.974;18.916;2023-07-22T11:50:42;4.38;;;2.95;;
51286;SDS011;37364;46.974;18.916;2023-07-22T11:53:12;2.65;;;2.42;;
51286;SDS011;37364;46.974;18.916;2023-07-22T11:55:42;11.10;;;2.70;;
51286;SDS011;37364;46.974;18.916;2023-07-22T11:58:13;4.80;;;3.15;;
51286;SDS011;37364;46.974;18.916;2023-07-22T12:00:44;3.63;;;2.90;;
51286;SDS011;37364;46.974;18.916;2023-07-22T12:03:33;3.03;;;2.72;;
51286;SDS011;37364;46.974;18.916;2023-07-22T12:06:04;4.38;;;2.95;;
51286;SDS011;37364;46.974;18.916;2023-07-22T12:08:36;6.22;;;2.65;;
51286;SDS011;37364;46.974;18.916;2023-07-22T12:11:08;5.00;;;2.88;;
51286;SDS011;37364;46.974;18.916;2023-07-22T12:13:45;5.72;;;2.85;;
51286;SDS011;37364;46.974;18.916;2023-07-22T12:16:23;18.08;;;2.88;;
51286;SDS011;37364;46.974;18.916;2023-07-22T12:18:56;12.27;;;2.55;;
51286;SDS011;37364;46.974;18.916;2023-07-22T12:21:27;5.43;;;2.42;;
51286;SDS011;37364;46.974;18.916;2023-07-22T12:23:58;3.55;;;2.28;;
51286;SDS011;37364;46.974;18.916;2023-07-22T12:26:28;7.15;;;2.63;;
51286;SDS011;37364;46.974;18.916;2023-07-22T12:28:58;4.60;;;2.42;;
51286;SDS011;37364;46.974;18.916;2023-07-22T12:31:30;6.93;;;2.80;;
51286;SDS011;37364;46.974;18.916;2023-07-22T12:34:03;6.97;;;2.45;;
51286;SDS011;37364;46.974;18.916;2023-07-22T12:39:03;3.85;;;2.22;;
51286;SDS011;37364;46.974;18.916;2023-07-22T12:41:33;1.88;;;1.77;;
51286;SDS011;37364;46.974;18.916;2023-07-22T12:44:04;5.63;;;2.10;;
51286;SDS011;37364;46.974;18.916;2023-07-22T12:46:34;5.43;;;2.35;;
51286;SDS011;37364;46.974;18.916;2023-07-22T12:49:07;1.55;;;1.45;;
51286;SDS011;37364;46.974;18.916;2023-07-22T12:51:37;3.00;;;1.92;;
51286;SDS011;37364;46.974;18.916;2023-07-22T12:54:07;3.85;;;2.13;;
51286;SDS011;37364;46.974;18.916;2023-07-22T12:56:37;2.35;;;2.00;;
51286;SDS011;37364;46.974;18.916;2023-07-22T12:59:09;5.72;;;1.90;;
51286;SDS011;37364;46.974;18.916;2023-07-22T13:01:39;2.00;;;1.67;;
51286;SDS011;37364;46.974;18.916;2023-07-22T13:04:12;3.33;;;2.03;;
51286;SDS011;37364;46.974;18.916;2023-07-22T13:06:42;2.08;;;1.80;;
51286;SDS011;37364;46.974;18.916;2023-07-22T13:09:12;3.03;;;2.15;;
51286;SDS011;37364;46.974;18.916;2023-07-22T13:11:43;6.50;;;1.85;;
51286;SDS011;37364;46.974;18.916;2023-07-22T13:14:13;4.00;;;2.03;;
51286;SDS011;37364;46.974;18.916;2023-07-22T13:16:45;2.72;;;1.75;;
51286;SDS011;37364;46.974;18.916;2023-07-22T13:19:18;7.80;;;2.05;;
51286;SDS011;37364;46.974;18.916;2023-07-22T13:21:48;4.75;;;1.95;;
51286;SDS011;37364;46.974;18.916;2023-07-22T13:24:18;10.02;;;1.88;;
51286;SDS011;37364;46.974;18.916;2023-07-22T13:26:48;2.35;;;1.75;;
51286;SDS011;37364;46.974;18.916;2023-07-22T13:29:18;5.07;;;2.08;;
51286;SDS011;37364;46.974;18.916;2023-07-22T13:31:48;3.17;;;2.03;;
51286;SDS011;37364;46.974;18.916;2023-07-22T13:34:21;2.03;;;1.75;;
51286;SDS011;37364;46.974;18.916;2023-07-22T13:36:52;3.70;;;1.98;;
51286;SDS011;37364;46.974;18.916;2023-07-22T13:39:22;1.13;;;1.13;;
51286;SDS011;37364;46.974;18.916;2023-07-22T13:41:52;2.05;;;1.85;;
51286;SDS011;37364;46.974;18.916;2023-07-22T13:44:22;2.00;;;1.90;;
51286;SDS011;37364;46.974;18.916;2023-07-22T13:46:53;3.25;;;2.42;;
51286;SDS011;37364;46.974;18.916;2023-07-22T13:49:26;3.67;;;1.73;;
51286;SDS011;37364;46.974;18.916;2023-07-22T13:51:56;20.35;;;2.03;;
51286;SDS011;37364;46.974;18.916;2023-07-22T13:54:26;9.82;;;1.80;;
51286;SDS011;37364;46.974;18.916;2023-07-22T13:56:56;3.05;;;1.58;;
51286;SDS011;37364;46.974;18.916;2023-07-22T13:59:26;3.22;;;2.13;;
51286;SDS011;37364;46.974;18.916;2023-07-22T14:01:57;5.32;;;2.05;;
51286;SDS011;37364;46.974;18.916;2023-07-22T14:04:29;1.80;;;1.70;;
51286;SDS011;37364;46.974;18.916;2023-07-22T14:06:59;1.73;;;1.63;;
51286;SDS011;37364;46.974;18.916;2023-07-22T14:09:30;1.95;;;1.75;;
51286;SDS011;37364;46.974;18.916;2023-07-22T14:12:00;3.30;;;1.90;;
51286;SDS011;37364;46.974;18.916;2023-07-22T14:14:31;2.33;;;1.75;;
51286;SDS011;37364;46.974;18.916;2023-07-22T14:17:01;1.80;;;1.60;;
51286;SDS011;37364;46.974;18.916;2023-07-22T14:19:34;4.57;;;2.22;;
51286;SDS011;37364;46.974;18.916;2023-07-22T14:22:04;3.60;;;1.98;;
51286;SDS011;37364;46.974;18.916;2023-07-22T14:24:35;4.95;;;1.88;;
51286;SDS011;37364;46.974;18.916;2023-07-22T14:27:05;3.75;;;1.67;;
51286;SDS011;37364;46.974;18.916;2023-07-22T14:29:36;2.13;;;1.92;;
51286;SDS011;37364;46.974;18.916;2023-07-22T14:32:06;2.33;;;1.83;;
51286;SDS011;37364;46.974;18.916;2023-07-22T14:34:41;8.70;;;1.60;;
51286;SDS011;37364;46.974;18.916;2023-07-22T14:37:11;1.95;;;1.55;;
51286;SDS011;37364;46.974;18.916;2023-07-22T14:39:42;1.80;;;1.70;;
51286;SDS011;37364;46.974;18.916;2023-07-22T14:42:13;8.98;;;2.00;;
51286;SDS011;37364;46.974;18.916;2023-07-22T14:44:43;2.45;;;1.80;;
51286;SDS011;37364;46.974;18.916;2023-07-22T14:47:13;4.15;;;1.77;;
51286;SDS011;37364;46.974;18.916;2023-07-22T14:49:46;3.50;;;2.22;;
51286;SDS011;37364;46.974;18.916;2023-07-22T14:52:19;1.98;;;1.88;;
51286;SDS011;37364;46.974;18.916;2023-07-22T14:54:49;4.18;;;2.00;;
51286;SDS011;37364;46.974;18.916;2023-07-22T14:57:19;2.22;;;1.80;;
51286;SDS011;37364;46.974;18.916;2023-07-22T14:59:53;3.83;;;2.00;;
51286;SDS011;37364;46.974;18.916;2023-07-22T15:02:23;2.78;;;2.03;;
51286;SDS011;37364;46.974;18.916;2023-07-22T15:04:56;3.58;;;1.88;;